Time;durP1;ratioP1;P1;durP2;ratioP2;P2;SDS_P1;SDS_P2;PMS_P1;PMS_P2;Temp;Humidity;BMP_temperature;BMP_pressure;BME280_temperature;BME280_humidity;BME280_pressure;Samples;Min_cycle;Max_cycle;Signal;HPM_P1;HPM_P2
2023/08/21 00:02:21;;;;;;;7.80;2.17;;;16.00;99.90;;;;;;5109735;28;20047;-84
2023/08/21 00:05:10;;;;;;;7.90;2.17;;;15.90;99.90;;;;;;5111662;28;20048;-80
2023/08/21 00:07:56;;;;;;;6.20;1.73;;;16.00;99.90;;;;;;5112712;28;20142;-82
2023/08/21 00:10:42;;;;;;;7.65;2.05;;;15.90;99.90;;;;;;5110515;28;20059;-82
2023/08/21 00:13:28;;;;;;;7.40;2.35;;;15.90;99.90;;;;;;5111424;28;20044;-83
2023/08/21 00:16:16;;;;;;;12.00;2.88;;;15.80;99.90;;;;;;5109423;28;20050;-83
2023/08/21 00:19:02;;;;;;;11.52;2.78;;;15.80;99.90;;;;;;5110421;28;20121;-88
2023/08/21 00:21:48;;;;;;;7.90;2.58;;;15.80;99.90;;;;;;5111093;28;20435;-87
2023/08/21 00:24:34;;;;;;;6.53;2.40;;;15.80;99.90;;;;;;5110810;28;20510;-85
2023/08/21 00:27:20;;;;;;;9.80;2.42;;;15.70;99.90;;;;;;5109244;28;20055;-85
2023/08/21 00:30:07;;;;;;;10.43;2.55;;;15.80;99.90;;;;;;5110781;28;20130;-85
2023/08/21 00:32:53;;;;;;;9.30;2.50;;;15.70;99.90;;;;;;5109202;28;20384;-86
2023/08/21 00:35:39;;;;;;;7.05;2.40;;;15.70;99.90;;;;;;5109994;28;20439;-85
2023/08/21 00:38:28;;;;;;;8.23;2.45;;;15.70;99.90;;;;;;5111760;28;20048;-85
2023/08/21 00:41:14;;;;;;;13.70;2.30;;;15.60;99.90;;;;;;5109636;28;20706;-82
2023/08/21 00:44:00;;;;;;;6.70;2.30;;;15.60;99.90;;;;;;5113611;28;20048;-84
2023/08/21 00:46:47;;;;;;;7.25;2.03;;;15.60;99.90;;;;;;5109020;28;20051;-87
2023/08/21 00:49:33;;;;;;;5.72;2.42;;;15.60;99.90;;;;;;5110055;28;20143;-86
2023/08/21 00:52:19;;;;;;;4.97;1.90;;;15.60;99.90;;;;;;5110434;28;20506;-86
2023/08/21 00:55:07;;;;;;;6.57;1.90;;;15.50;99.90;;;;;;5110374;28;20055;-83
2023/08/21 00:57:54;;;;;;;6.85;1.75;;;15.50;99.90;;;;;;5110262;28;20055;-82
2023/08/21 01:00:41;;;;;;;5.75;1.50;;;15.50;99.90;;;;;;5110216;28;20044;-86
2023/08/21 01:03:27;;;;;;;4.07;1.42;;;15.40;99.90;;;;;;5108140;28;20059;-86
2023/08/21 01:06:14;;;;;;;6.85;1.48;;;15.40;99.90;;;;;;5110046;28;20071;-83
2023/08/21 01:09:38;;;;;;;8.95;1.88;;;15.40;99.90;;;;;;5109827;28;20130;-82
2023/08/21 01:12:34;;;;;;;6.93;1.77;;;15.40;99.90;;;;;;5110887;28;20055;-86
2023/08/21 01:15:21;;;;;;;5.90;2.22;;;15.30;99.90;;;;;;5110592;28;20047;-82
2023/08/21 01:18:08;;;;;;;5.30;1.48;;;15.40;99.90;;;;;;5111709;28;20162;-87
2023/08/21 01:20:58;;;;;;;5.72;2.05;;;15.30;99.90;;;;;;5112155;28;20044;-88
2023/08/21 01:23:44;;;;;;;6.22;1.88;;;15.30;99.90;;;;;;5108863;28;20517;-82
2023/08/21 01:26:30;;;;;;;3.60;1.60;;;15.30;99.90;;;;;;5109292;28;20143;-83
2023/08/21 01:29:16;;;;;;;8.43;1.98;;;15.30;99.90;;;;;;5108327;28;20108;-83
2023/08/21 01:32:16;;;;;;;5.40;2.13;;;15.30;99.90;;;;;;5111565;28;20109;-83
2023/08/21 01:35:04;;;;;;;5.40;2.20;;;15.20;99.90;;;;;;5115632;28;20134;-82
2023/08/21 01:37:51;;;;;;;9.57;2.65;;;15.30;99.90;;;;;;5114716;28;20134;-81
2023/08/21 01:40:37;;;;;;;9.10;2.97;;;15.30;99.90;;;;;;5113026;28;20810;-84
2023/08/21 01:43:23;;;;;;;6.95;2.63;;;15.30;99.90;;;;;;5109049;28;20091;-82
2023/08/21 01:46:09;;;;;;;9.20;2.40;;;15.20;99.90;;;;;;5109689;28;20079;-87
2023/08/21 01:48:56;;;;;;;8.90;2.85;;;15.30;99.90;;;;;;5110224;28;20479;-83
2023/08/21 01:51:42;;;;;;;4.65;2.05;;;15.20;99.90;;;;;;5110280;28;20580;-86
2023/08/21 01:54:28;;;;;;;6.57;2.38;;;15.20;99.90;;;;;;5108572;28;20628;-85
2023/08/21 01:57:14;;;;;;;9.40;2.03;;;15.20;99.90;;;;;;5108254;28;20051;-83
2023/08/21 02:00:00;;;;;;;5.57;2.00;;;15.10;99.90;;;;;;5109698;28;20066;-83
2023/08/21 02:02:46;;;;;;;6.18;2.83;;;15.20;99.90;;;;;;5113058;28;20055;-84
2023/08/21 02:05:40;;;;;;;7.72;1.98;;;15.10;99.90;;;;;;5113095;28;20058;-83
2023/08/21 02:08:33;;;;;;;6.97;3.25;;;15.10;99.90;;;;;;5112741;28;20087;-85
2023/08/21 02:11:19;;;;;;;8.93;2.63;;;15.10;99.90;;;;;;5114616;27;20079;-86
2023/08/21 02:14:05;;;;;;;6.38;2.75;;;15.10;99.90;;;;;;5112839;28;20051;-82
2023/08/21 02:16:51;;;;;;;10.27;3.17;;;15.20;99.90;;;;;;5113148;28;20043;-83
2023/08/21 02:19:37;;;;;;;12.95;3.90;;;15.10;99.90;;;;;;5112741;28;20059;-81
2023/08/21 02:22:23;;;;;;;8.25;2.67;;;15.20;99.90;;;;;;5110923;28;20062;-82
2023/08/21 02:25:09;;;;;;;8.15;3.08;;;15.20;99.90;;;;;;5113116;28;20052;-82
2023/08/21 02:27:55;;;;;;;14.20;4.35;;;15.20;99.90;;;;;;5110154;28;20094;-82
2023/08/21 02:30:42;;;;;;;8.27;4.03;;;15.20;99.90;;;;;;5113028;28;20040;-82
2023/08/21 02:33:28;;;;;;;11.80;4.57;;;15.20;99.90;;;;;;5114280;28;20054;-81
2023/08/21 02:36:14;;;;;;;11.10;3.58;;;15.20;99.90;;;;;;5112708;28;20116;-82
2023/08/21 02:39:00;;;;;;;7.97;3.45;;;15.20;99.90;;;;;;5112478;28;20048;-84
2023/08/21 02:41:46;;;;;;;11.27;3.72;;;15.10;99.90;;;;;;5113902;28;20090;-82
2023/08/21 02:44:32;;;;;;;8.10;3.55;;;15.20;99.90;;;;;;5116264;28;20055;-82
2023/08/21 02:47:18;;;;;;;9.38;3.40;;;15.10;99.90;;;;;;5115010;28;20065;-82
2023/08/21 02:50:06;;;;;;;7.90;3.75;;;15.10;99.90;;;;;;5112363;28;20506;-83
2023/08/21 02:52:52;;;;;;;13.55;3.92;;;15.10;99.90;;;;;;5111058;28;20058;-84
2023/08/21 02:55:38;;;;;;;7.05;3.47;;;15.20;99.90;;;;;;5114493;28;20051;-82
2023/08/21 02:58:24;;;;;;;9.77;3.65;;;15.10;99.90;;;;;;5118849;28;20075;-82
2023/08/21 03:01:10;;;;;;;6.22;2.47;;;15.00;99.90;;;;;;5117865;28;20055;-83
2023/08/21 03:03:56;;;;;;;7.15;3.47;;;15.00;99.90;;;;;;5120510;28;20046;-86
2023/08/21 03:06:42;;;;;;;6.28;2.90;;;15.00;99.90;;;;;;5104521;28;20055;-85
2023/08/21 03:09:28;;;;;;;9.05;3.88;;;15.00;99.90;;;;;;5115683;28;20048;-82
2023/08/21 03:12:14;;;;;;;9.82;3.75;;;15.00;99.90;;;;;;5110903;28;20058;-82
2023/08/21 03:15:00;;;;;;;12.45;5.20;;;15.00;99.90;;;;;;5112553;28;20160;-83
2023/08/21 03:17:47;;;;;;;13.57;4.93;;;15.10;99.90;;;;;;5112265;28;20128;-83
2023/08/21 03:20:33;;;;;;;8.82;4.35;;;15.10;99.90;;;;;;5112239;28;20048;-82
2023/08/21 03:23:19;;;;;;;13.85;4.57;;;15.10;99.90;;;;;;5111924;28;20061;-82
2023/08/21 03:26:05;;;;;;;10.68;4.47;;;15.10;99.90;;;;;;5096566;28;20083;-82
2023/08/21 03:28:51;;;;;;;8.48;4.47;;;15.10;99.90;;;;;;5110182;28;20051;-82
2023/08/21 03:31:37;;;;;;;11.57;4.13;;;15.10;99.90;;;;;;5110582;28;20151;-82
2023/08/21 03:34:23;;;;;;;10.82;4.03;;;15.10;99.90;;;;;;5111796;28;20055;-82
2023/08/21 03:37:10;;;;;;;8.52;2.80;;;15.10;99.90;;;;;;5112332;28;20051;-83
2023/08/21 03:39:56;;;;;;;7.63;3.67;;;15.10;99.90;;;;;;5110958;28;20099;-82
2023/08/21 03:42:43;;;;;;;7.68;3.20;;;15.00;99.90;;;;;;5113938;28;20052;-82
2023/08/21 03:45:29;;;;;;;6.40;2.70;;;15.00;99.90;;;;;;5115256;28;20062;-82
2023/08/21 03:48:15;;;;;;;4.88;2.92;;;15.00;99.90;;;;;;5114694;28;20570;-86
2023/08/21 03:51:01;;;;;;;4.47;2.20;;;15.00;99.90;;;;;;5111071;28;20406;-85
2023/08/21 03:53:47;;;;;;;4.82;2.70;;;14.90;99.90;;;;;;5109543;28;20085;-86
2023/08/21 03:56:33;;;;;;;7.28;2.78;;;14.90;99.90;;;;;;5110786;28;20406;-85
2023/08/21 03:59:19;;;;;;;10.20;2.90;;;14.90;99.90;;;;;;5111509;28;20127;-85
2023/08/21 04:02:06;;;;;;;12.93;2.58;;;14.80;99.90;;;;;;5110302;28;20066;-85
2023/08/21 04:04:52;;;;;;;28.83;2.85;;;14.80;99.90;;;;;;5080944;28;20402;-84
2023/08/21 04:07:38;;;;;;;28.65;3.10;;;14.80;99.90;;;;;;5111113;28;20082;-85
2023/08/21 04:10:25;;;;;;;40.58;4.28;;;14.70;99.90;;;;;;5109684;28;20135;-83
2023/08/21 04:13:11;;;;;;;41.25;3.60;;;14.70;99.90;;;;;;5109087;28;20425;-85
2023/08/21 04:15:57;;;;;;;28.33;3.00;;;14.60;99.90;;;;;;5109532;28;20577;-83
2023/08/21 04:18:43;;;;;;;17.73;2.45;;;14.60;99.90;;;;;;5111515;28;20059;-86
2023/08/21 04:21:29;;;;;;;19.83;2.78;;;14.50;99.90;;;;;;5110595;28;20098;-86
2023/08/21 04:24:15;;;;;;;5.35;3.03;;;14.50;99.90;;;;;;5110273;28;20052;-86
2023/08/21 04:27:02;;;;;;;6.75;3.20;;;14.50;99.90;;;;;;5109660;28;20048;-86
2023/08/21 04:29:48;;;;;;;7.07;3.00;;;14.60;99.90;;;;;;5108931;28;20055;-82
2023/08/21 04:32:34;;;;;;;10.20;2.75;;;14.60;99.90;;;;;;5110479;28;20128;-83
2023/08/21 04:35:20;;;;;;;13.13;3.17;;;14.60;99.90;;;;;;5113580;28;20051;-82
2023/08/21 04:38:07;;;;;;;18.98;3.60;;;14.70;99.90;;;;;;5116788;28;20044;-82
2023/08/21 04:40:53;;;;;;;5.60;2.75;;;14.70;99.90;;;;;;5108882;28;20112;-82
2023/08/21 04:43:39;;;;;;;12.52;3.22;;;14.80;99.90;;;;;;5109593;28;20056;-83
2023/08/21 04:46:25;;;;;;;10.43;3.35;;;14.80;99.90;;;;;;5110291;28;20100;-82
2023/08/21 04:49:11;;;;;;;12.68;3.38;;;14.90;99.90;;;;;;5110844;28;20047;-83
2023/08/21 04:51:57;;;;;;;13.95;3.80;;;14.90;99.90;;;;;;5110088;28;20051;-82
2023/08/21 04:54:44;;;;;;;4.53;2.55;;;14.90;99.90;;;;;;5108910;28;20052;-84
2023/08/21 04:57:30;;;;;;;5.22;2.53;;;15.00;99.90;;;;;;5109472;28;20052;-82
2023/08/21 05:00:16;;;;;;;8.07;3.35;;;15.00;99.90;;;;;;5107773;28;20044;-81
2023/08/21 05:03:03;;;;;;;11.50;3.33;;;15.00;99.90;;;;;;5110078;28;20056;-82
2023/08/21 05:05:53;;;;;;;5.97;3.60;;;15.10;99.90;;;;;;5109681;28;20101;-82
2023/08/21 05:08:40;;;;;;;7.30;3.40;;;15.10;99.90;;;;;;5108909;28;20047;-84
2023/08/21 05:11:26;;;;;;;8.60;4.35;;;15.10;99.90;;;;;;5110189;28;20066;-81
2023/08/21 05:14:12;;;;;;;6.68;3.92;;;15.10;99.90;;;;;;5110236;28;20810;-80
2023/08/21 05:16:58;;;;;;;5.72;3.65;;;15.20;99.90;;;;;;5111516;28;20051;-82
2023/08/21 05:19:45;;;;;;;10.35;4.28;;;15.20;99.90;;;;;;5109228;28;20112;-82
2023/08/21 05:22:31;;;;;;;8.95;4.03;;;15.30;99.90;;;;;;5109781;28;20093;-83
2023/08/21 05:25:17;;;;;;;11.25;3.85;;;15.40;99.90;;;;;;5110300;28;20534;-82
2023/08/21 05:28:03;;;;;;;11.38;4.20;;;15.40;99.90;;;;;;5108443;28;20522;-82
2023/08/21 05:30:50;;;;;;;10.77;4.00;;;15.50;99.90;;;;;;5096273;28;20058;-82
2023/08/21 05:33:36;;;;;;;10.93;4.65;;;15.60;99.90;;;;;;5110392;28;20051;-81
2023/08/21 05:36:22;;;;;;;8.02;3.80;;;15.60;99.90;;;;;;5111915;28;20138;-83
2023/08/21 05:39:08;;;;;;;8.15;4.10;;;15.70;99.90;;;;;;5113958;28;20044;-82
2023/08/21 05:41:55;;;;;;;11.35;4.65;;;15.80;99.90;;;;;;5113844;28;20075;-82
2023/08/21 05:44:41;;;;;;;11.10;3.95;;;15.90;99.90;;;;;;5113543;28;20051;-84
2023/08/21 05:47:27;;;;;;;10.82;4.82;;;16.00;99.90;;;;;;5112199;28;20056;-81
2023/08/21 05:50:14;;;;;;;9.98;3.45;;;16.00;99.90;;;;;;5112337;28;20058;-80
2023/08/21 05:53:01;;;;;;;7.82;3.28;;;16.10;99.90;;;;;;5112141;28;20506;-82
2023/08/21 05:55:48;;;;;;;9.05;3.85;;;16.20;99.90;;;;;;5112498;28;20150;-82
2023/08/21 05:58:34;;;;;;;8.70;3.83;;;16.30;99.90;;;;;;5113411;28;20520;-81
2023/08/21 06:01:20;;;;;;;8.98;3.88;;;16.40;99.90;;;;;;5113657;28;20383;-84
2023/08/21 06:04:06;;;;;;;11.80;4.30;;;16.50;99.90;;;;;;5113071;28;20494;-82
2023/08/21 06:06:53;;;;;;;10.55;3.53;;;16.70;99.90;;;;;;5113330;28;20056;-82
2023/08/21 06:09:39;;;;;;;8.57;3.70;;;16.80;99.90;;;;;;5112910;28;20048;-82
2023/08/21 06:12:25;;;;;;;10.88;3.88;;;16.90;99.90;;;;;;5113570;28;20422;-85
2023/08/21 06:15:14;;;;;;;10.55;4.15;;;17.00;99.90;;;;;;5117371;28;20055;-86
2023/08/21 06:18:00;;;;;;;11.82;3.88;;;17.20;99.90;;;;;;5117644;28;20050;-84
2023/08/21 06:20:46;;;;;;;9.48;3.60;;;17.30;99.90;;;;;;5111935;28;20043;-84
2023/08/21 06:23:33;;;;;;;14.82;3.67;;;17.40;99.90;;;;;;5113061;28;20052;-84
2023/08/21 06:26:19;;;;;;;12.77;3.75;;;17.50;99.90;;;;;;5115357;28;20043;-81
2023/08/21 06:29:05;;;;;;;11.07;3.67;;;17.60;99.90;;;;;;5113237;28;20051;-84
2023/08/21 06:31:51;;;;;;;13.43;3.80;;;17.70;99.90;;;;;;5113577;28;20044;-83
2023/08/21 06:34:38;;;;;;;9.60;3.22;;;17.80;99.90;;;;;;5112955;28;20055;-82
2023/08/21 06:37:24;;;;;;;7.47;3.08;;;17.90;99.90;;;;;;5112460;28;20059;-80
2023/08/21 06:40:11;;;;;;;10.98;3.53;;;18.10;99.90;;;;;;5093156;28;20055;-83
2023/08/21 06:42:58;;;;;;;11.90;3.55;;;18.30;99.90;;;;;;5093932;28;20094;-80
2023/08/21 06:45:45;;;;;;;11.77;2.85;;;18.40;99.90;;;;;;5092902;28;20094;-82
2023/08/21 06:48:31;;;;;;;6.28;2.63;;;18.50;99.90;;;;;;5093748;28;20147;-81
2023/08/21 06:51:17;;;;;;;8.32;3.22;;;18.60;99.90;;;;;;5094444;28;20197;-81
2023/08/21 06:54:03;;;;;;;11.90;3.90;;;18.80;99.90;;;;;;5090819;28;20410;-81
2023/08/21 06:56:49;;;;;;;9.02;2.70;;;18.90;99.90;;;;;;5090711;28;20056;-86
2023/08/21 06:59:36;;;;;;;9.15;3.03;;;19.10;99.90;;;;;;5090346;28;20055;-82
2023/08/21 07:02:22;;;;;;;7.47;2.40;;;19.30;99.90;;;;;;5092090;28;20044;-80
2023/08/21 07:05:08;;;;;;;7.85;2.20;;;19.40;99.90;;;;;;5092199;28;20047;-78
2023/08/21 07:07:55;;;;;;;6.25;2.10;;;19.60;99.90;;;;;;5091036;28;20055;-82
2023/08/21 07:10:41;;;;;;;8.15;2.20;;;19.70;99.90;;;;;;5092190;28;20051;-80
2023/08/21 07:13:27;;;;;;;8.43;2.65;;;19.90;99.90;;;;;;5090363;28;20445;-81
2023/08/21 07:16:13;;;;;;;9.13;2.47;;;20.00;99.90;;;;;;5091062;28;20056;-79
2023/08/21 07:18:59;;;;;;;6.20;1.92;;;20.10;99.90;;;;;;5090706;28;20044;-80
2023/08/21 07:21:45;;;;;;;9.50;2.35;;;20.30;99.90;;;;;;5092698;28;20048;-76
2023/08/21 07:24:32;;;;;;;5.25;1.67;;;20.40;99.90;;;;;;5092525;28;20385;-81
2023/08/21 07:27:18;;;;;;;7.45;2.00;;;20.60;99.90;;;;;;5090165;28;20056;-83
2023/08/21 07:30:06;;;;;;;9.00;2.00;;;20.80;99.90;;;;;;5090429;28;20052;-76
2023/08/21 07:32:53;;;;;;;7.95;2.03;;;20.90;99.90;;;;;;5092279;28;20510;-80
2023/08/21 07:35:40;;;;;;;8.77;1.75;;;20.90;99.90;;;;;;5092102;28;20055;-81
2023/08/21 07:38:26;;;;;;;5.32;1.73;;;21.10;99.90;;;;;;5091217;28;20106;-77
2023/08/21 07:41:13;;;;;;;13.00;2.25;;;21.20;99.90;;;;;;5094160;28;20056;-80
2023/08/21 07:43:59;;;;;;;7.80;2.30;;;21.20;99.90;;;;;;5082439;28;20060;-83
2023/08/21 07:46:45;;;;;;;7.35;1.58;;;21.40;99.90;;;;;;5094567;28;20127;-80
2023/08/21 07:49:32;;;;;;;5.32;1.70;;;21.50;99.90;;;;;;5095050;28;20052;-79
2023/08/21 07:52:19;;;;;;;8.27;2.35;;;21.70;99.90;;;;;;5093572;28;20041;-81
2023/08/21 07:55:05;;;;;;;10.55;2.10;;;21.80;99.90;;;;;;5094480;28;20074;-81
2023/08/21 07:57:51;;;;;;;6.53;1.70;;;21.90;99.90;;;;;;5075916;28;20048;-81
2023/08/21 08:00:39;;;;;;;5.25;1.67;;;22.10;99.90;;;;;;5107638;28;20192;-82
2023/08/21 08:03:25;;;;;;;11.75;2.22;;;22.10;99.90;;;;;;5109984;28;20058;-80
2023/08/21 08:06:11;;;;;;;6.38;1.83;;;22.20;99.90;;;;;;5109816;28;20134;-81
2023/08/21 08:08:57;;;;;;;7.47;2.03;;;22.30;99.90;;;;;;5111891;28;20036;-79
2023/08/21 08:11:44;;;;;;;11.10;3.25;;;22.50;99.90;;;;;;5111382;28;20035;-77
2023/08/21 08:14:30;;;;;;;10.20;2.72;;;22.50;99.90;;;;;;5109815;28;20058;-79
2023/08/21 08:17:16;;;;;;;8.25;2.65;;;22.50;99.90;;;;;;5110099;28;20059;-79
2023/08/21 08:20:02;;;;;;;6.25;2.08;;;22.70;99.90;;;;;;5111189;28;20048;-78
2023/08/21 08:22:48;;;;;;;7.10;1.77;;;22.80;99.90;;;;;;5109045;28;20146;-78
2023/08/21 08:25:34;;;;;;;6.72;2.28;;;22.90;99.90;;;;;;5111063;28;20109;-82
2023/08/21 08:28:21;;;;;;;10.65;2.30;;;23.00;99.90;;;;;;5111501;28;20044;-77
2023/08/21 08:31:07;;;;;;;12.48;3.35;;;23.20;99.90;;;;;;5109130;28;20047;-80
2023/08/21 08:33:54;;;;;;;8.45;2.80;;;23.40;99.90;;;;;;5109449;28;20563;-77
2023/08/21 08:36:41;;;;;;;9.45;2.47;;;23.40;99.90;;;;;;5110569;28;20048;-84
2023/08/21 08:39:27;;;;;;;9.65;2.67;;;23.60;99.90;;;;;;5110848;28;20039;-81
2023/08/21 08:42:15;;;;;;;9.50;2.97;;;23.80;99.90;;;;;;5110331;28;20044;-78
2023/08/21 08:45:03;;;;;;;9.35;3.00;;;23.90;99.90;;;;;;5105832;28;20127;-79
2023/08/21 08:47:50;;;;;;;10.00;3.45;;;24.00;99.90;;;;;;5109989;28;20048;-77
2023/08/21 08:50:38;;;;;;;9.82;3.28;;;24.00;99.90;;;;;;5108959;28;20054;-74
2023/08/21 08:53:25;;;;;;;9.73;2.60;;;24.30;99.90;;;;;;5108411;28;20048;-74
2023/08/21 08:56:11;;;;;;;7.88;2.10;;;24.50;99.90;;;;;;5101465;28;20388;-80
2023/08/21 08:58:58;;;;;;;11.25;2.28;;;24.70;99.90;;;;;;5104315;28;20056;-74
2023/08/21 09:01:44;;;;;;;5.68;1.92;;;24.80;99.90;;;;;;5105262;28;20051;-75
2023/08/21 09:04:33;;;;;;;8.95;2.40;;;24.80;99.90;;;;;;5091040;28;20052;-76
2023/08/21 09:07:20;;;;;;;10.23;2.05;;;25.00;99.90;;;;;;5073615;28;20056;-76
2023/08/21 09:10:16;;;;;;;15.77;2.28;;;24.90;99.90;;;;;;5091450;28;20063;-76
2023/08/21 09:13:12;;;;;;;8.98;2.33;;;25.00;99.90;;;;;;5093980;28;20063;-81
2023/08/21 09:15:59;;;;;;;9.98;1.52;;;25.10;99.90;;;;;;5108751;28;20058;-75
2023/08/21 09:18:56;;;;;;;8.23;2.25;;;25.30;99.90;;;;;;5111921;28;20139;-78
2023/08/21 09:21:43;;;;;;;8.10;1.90;;;25.30;99.90;;;;;;5087837;28;20043;-79
2023/08/21 09:24:29;;;;;;;6.45;1.50;;;25.30;99.90;;;;;;5108772;28;20059;-79
2023/08/21 09:27:16;;;;;;;7.22;1.45;;;25.30;99.90;;;;;;5106426;28;20052;-78
2023/08/21 09:30:08;;;;;;;6.68;1.73;;;25.50;99.90;;;;;;5113392;28;20054;-75
2023/08/21 09:32:57;;;;;;;7.10;1.70;;;25.70;99.90;;;;;;5103776;28;20063;-75
2023/08/21 09:35:43;;;;;;;8.02;1.50;;;25.70;99.90;;;;;;5103682;28;20039;-79
2023/08/21 09:38:30;;;;;;;9.52;2.30;;;25.80;99.90;;;;;;5109228;28;20051;-79
2023/08/21 09:41:22;;;;;;;7.72;1.65;;;25.90;99.90;;;;;;5109682;28;20046;-78
2023/08/21 09:44:09;;;;;;;6.57;1.88;;;26.10;98.20;;;;;;5109830;28;20048;-76
2023/08/21 09:46:55;;;;;;;6.22;1.55;;;26.40;99.70;;;;;;5112640;28;20043;-77
2023/08/21 09:49:42;;;;;;;9.20;2.13;;;26.60;99.00;;;;;;5111502;28;20086;-75
2023/08/21 09:52:28;;;;;;;10.00;2.10;;;26.60;98.50;;;;;;5094882;28;20509;-79
2023/08/21 09:55:15;;;;;;;8.05;2.35;;;26.70;98.40;;;;;;5117616;28;20545;-82
2023/08/21 09:58:02;;;;;;;12.38;2.67;;;26.80;98.70;;;;;;5113158;28;20109;-75
2023/08/21 10:00:49;;;;;;;7.43;2.28;;;27.00;98.60;;;;;;5112049;28;20043;-77
2023/08/21 10:03:38;;;;;;;8.77;1.65;;;27.10;97.70;;;;;;5112805;28;20055;-75
2023/08/21 10:06:25;;;;;;;7.88;1.85;;;27.10;97.70;;;;;;5111048;28;20072;-76
2023/08/21 10:09:13;;;;;;;6.57;1.38;;;27.20;96.90;;;;;;5111861;28;20044;-77
2023/08/21 10:11:59;;;;;;;9.48;1.88;;;27.30;96.80;;;;;;5109482;28;20058;-80
2023/08/21 10:14:46;;;;;;;8.27;1.80;;;27.30;96.90;;;;;;5105890;28;20506;-77
2023/08/21 10:17:32;;;;;;;7.10;1.40;;;27.40;96.40;;;;;;5094485;28;20048;-80
2023/08/21 10:20:23;;;;;;;8.18;1.45;;;27.40;96.10;;;;;;5112043;28;20166;-80
2023/08/21 10:23:09;;;;;;;8.48;1.42;;;27.60;95.30;;;;;;5110733;28;20044;-78
2023/08/21 10:26:01;;;;;;;6.50;1.77;;;27.80;96.10;;;;;;5110927;28;20101;-79
2023/08/21 10:28:52;;;;;;;5.50;1.83;;;27.70;95.40;;;;;;5096759;28;20039;-80
2023/08/21 10:31:40;;;;;;;12.32;1.98;;;27.50;95.30;;;;;;5102900;28;20613;-77
2023/08/21 10:34:33;;;;;;;7.93;2.83;;;27.50;95.70;;;;;;5110682;28;20108;-82
2023/08/21 10:37:19;;;;;;;8.63;1.75;;;27.80;95.30;;;;;;5109574;28;20069;-80
2023/08/21 10:40:09;;;;;;;10.43;2.35;;;28.00;95.10;;;;;;5108593;28;20120;-78
2023/08/21 10:42:55;;;;;;;6.80;1.85;;;28.20;95.10;;;;;;5111590;28;20047;-78
2023/08/21 10:45:55;;;;;;;6.20;1.77;;;28.20;94.50;;;;;;5095036;28;20056;-80
2023/08/21 10:48:42;;;;;;;8.32;1.60;;;28.30;93.70;;;;;;5112646;28;20586;-91
2023/08/21 10:51:29;;;;;;;7.15;1.70;;;28.80;93.30;;;;;;5111609;28;20502;-81
2023/08/21 10:54:16;;;;;;;10.65;1.98;;;28.80;93.20;;;;;;5111250;28;20079;-80
2023/08/21 10:57:02;;;;;;;4.80;1.45;;;29.30;93.60;;;;;;5104215;28;20058;-80
2023/08/21 10:59:53;;;;;;;7.72;1.95;;;29.70;93.50;;;;;;5103180;28;20055;-79
2023/08/21 11:02:41;;;;;;;9.75;2.00;;;29.80;92.40;;;;;;5102000;28;20040;-83
2023/08/21 11:05:27;;;;;;;7.10;2.10;;;30.30;92.50;;;;;;5103125;28;20503;-81
2023/08/21 11:08:14;;;;;;;5.50;1.90;;;29.70;91.90;;;;;;5103276;28;20058;-82
2023/08/21 11:11:05;;;;;;;6.50;1.58;;;29.40;92.00;;;;;;5101568;28;20044;-85
2023/08/21 11:13:54;;;;;;;7.65;1.50;;;29.50;91.40;;;;;;5101023;28;20047;-83
2023/08/21 11:16:41;;;;;;;5.63;1.20;;;29.10;92.10;;;;;;5098646;28;20063;-82
2023/08/21 11:19:30;;;;;;;7.22;1.88;;;29.50;92.80;;;;;;5103613;28;20062;-83
2023/08/21 11:22:17;;;;;;;7.13;1.80;;;30.10;92.50;;;;;;5112335;28;20094;-82
2023/08/21 11:25:03;;;;;;;5.45;1.08;;;30.60;92.00;;;;;;5104427;28;20044;-83
2023/08/21 11:27:49;;;;;;;10.57;1.90;;;30.00;91.40;;;;;;5092531;28;20052;-80
2023/08/21 11:30:36;;;;;;;6.78;1.63;;;29.70;92.60;;;;;;5093762;28;20113;-86
2023/08/21 11:33:22;;;;;;;8.95;2.00;;;30.10;94.10;;;;;;5095883;28;20044;-79
2023/08/21 11:36:09;;;;;;;8.20;1.90;;;29.30;94.20;;;;;;5092207;28;20503;-80
2023/08/21 11:39:04;;;;;;;7.80;1.75;;;29.00;94.70;;;;;;5095441;28;20081;-80
2023/08/21 11:41:56;;;;;;;12.95;2.13;;;28.40;95.40;;;;;;5092929;28;20182;-79
2023/08/21 11:44:52;;;;;;;7.70;2.08;;;28.70;96.20;;;;;;5095144;28;20147;-82
2023/08/21 11:47:40;;;;;;;9.38;2.63;;;28.90;95.50;;;;;;5092378;28;20054;-84
2023/08/21 11:50:27;;;;;;;10.43;2.28;;;28.90;96.00;;;;;;5090406;28;20523;-82
2023/08/21 11:53:13;;;;;;;7.65;1.83;;;29.30;96.20;;;;;;5092104;28;20083;-80
2023/08/21 11:55:59;;;;;;;10.23;2.25;;;30.20;95.30;;;;;;5091301;28;20467;-83
2023/08/21 11:58:46;;;;;;;8.55;1.88;;;29.80;94.10;;;;;;5092076;28;20048;-86
2023/08/21 12:01:33;;;;;;;9.45;1.90;;;29.20;94.50;;;;;;5092407;28;20407;-94
2023/08/21 12:04:19;;;;;;;8.68;2.03;;;29.00;94.90;;;;;;5092601;28;20052;-80
2023/08/21 12:07:06;;;;;;;10.15;1.98;;;29.40;94.90;;;;;;5091259;28;20119;-81
2023/08/21 12:09:52;;;;;;;6.70;1.30;;;28.80;95.00;;;;;;5090633;28;20051;-79
2023/08/21 12:12:38;;;;;;;7.90;1.65;;;28.90;95.00;;;;;;5092498;28;20047;-80
2023/08/21 12:15:24;;;;;;;8.23;1.85;;;28.60;95.10;;;;;;5091382;28;20052;-82
2023/08/21 12:18:10;;;;;;;6.93;1.50;;;28.00;95.30;;;;;;5090392;28;20079;-80
2023/08/21 12:20:56;;;;;;;7.07;1.70;;;27.80;96.10;;;;;;5090671;28;20048;-82
2023/08/21 12:23:42;;;;;;;6.97;1.55;;;27.60;96.60;;;;;;5091418;28;20048;-80
2023/08/21 12:26:28;;;;;;;8.23;2.47;;;27.50;97.70;;;;;;5103654;28;20427;-79
2023/08/21 12:29:14;;;;;;;9.48;2.17;;;28.10;97.60;;;;;;5090482;28;20503;-79
2023/08/21 12:32:01;;;;;;;8.40;2.03;;;28.90;96.70;;;;;;5091928;28;20406;-79
2023/08/21 12:34:47;;;;;;;7.32;1.85;;;29.80;96.20;;;;;;5094193;28;20059;-81
2023/08/21 12:37:33;;;;;;;8.85;1.98;;;30.10;95.90;;;;;;5091687;28;20048;-83
2023/08/21 12:40:19;;;;;;;8.32;2.03;;;30.60;95.70;;;;;;5092001;28;20511;-81
2023/08/21 12:43:05;;;;;;;7.20;2.95;;;30.90;94.90;;;;;;5092525;28;20054;-85
2023/08/21 12:45:51;;;;;;;9.75;2.45;;;30.20;94.70;;;;;;5092411;28;20466;-83
2023/08/21 12:48:37;;;;;;;9.43;2.20;;;29.60;95.00;;;;;;5091154;28;20495;-85
2023/08/21 12:51:23;;;;;;;10.05;1.98;;;29.00;95.70;;;;;;5090549;28;20048;-88
2023/08/21 12:54:10;;;;;;;8.55;2.00;;;29.00;96.70;;;;;;5090338;28;20048;-88
2023/08/21 12:56:56;;;;;;;7.78;1.83;;;28.80;96.60;;;;;;5089729;28;20059;-81
2023/08/21 12:59:42;;;;;;;9.20;2.05;;;28.40;96.60;;;;;;5089872;28;20084;-82
2023/08/21 13:02:29;;;;;;;8.73;1.80;;;27.90;97.10;;;;;;5090043;28;20055;-83
2023/08/21 13:05:15;;;;;;;9.65;1.70;;;27.60;97.40;;;;;;5089093;28;20056;-87
2023/08/21 13:08:02;;;;;;;12.13;2.53;;;27.90;97.70;;;;;;5090829;28;20067;-82
2023/08/21 13:10:48;;;;;;;5.82;1.40;;;29.00;96.30;;;;;;5093029;28;20052;-80
2023/08/21 13:13:34;;;;;;;8.10;1.77;;;29.80;95.40;;;;;;5091001;28;20407;-85
2023/08/21 13:16:20;;;;;;;7.97;1.33;;;29.70;94.20;;;;;;5094217;28;20137;-87
2023/08/21 13:19:06;;;;;;;9.77;2.08;;;28.90;94.40;;;;;;5099808;28;20054;-84
2023/08/21 13:21:54;;;;;;;8.88;1.60;;;28.60;94.60;;;;;;5103164;28;20047;-80
2023/08/21 13:24:40;;;;;;;7.72;1.25;;;29.10;94.40;;;;;;5099447;28;20052;-81
2023/08/21 13:27:26;;;;;;;6.53;1.10;;;29.40;93.30;;;;;;5103335;28;20138;-78
2023/08/21 13:30:13;;;;;;;6.03;1.50;;;29.60;92.70;;;;;;5093644;28;20048;-83
2023/08/21 13:32:59;;;;;;;3.35;1.02;;;29.80;93.10;;;;;;5090649;28;20036;-84
2023/08/21 13:35:45;;;;;;;5.45;1.00;;;30.90;92.40;;;;;;5097368;28;20075;-77
2023/08/21 13:38:31;;;;;;;7.80;1.20;;;32.00;90.80;;;;;;5091177;28;20072;-78
2023/08/21 13:41:17;;;;;;;7.57;1.60;;;32.80;89.60;;;;;;5089683;28;20059;-86
2023/08/21 13:44:03;;;;;;;6.03;1.20;;;33.60;88.60;;;;;;5091437;28;20099;-81
2023/08/21 13:46:50;;;;;;;7.55;1.10;;;34.30;85.80;;;;;;5091116;28;20101;-81
2023/08/21 13:49:36;;;;;;;11.00;2.20;;;34.30;83.80;;;;;;5091988;28;20083;-81
2023/08/21 13:52:22;;;;;;;8.40;1.33;;;34.60;82.30;;;;;;5090212;28;20101;-81
2023/08/21 13:55:09;;;;;;;5.57;2.00;;;34.80;81.20;;;;;;5091067;28;20087;-82
2023/08/21 13:57:56;;;;;;;5.10;1.67;;;35.40;79.50;;;;;;5094932;28;20063;-80
2023/08/21 14:00:42;;;;;;;3.55;0.75;;;35.40;79.70;;;;;;5093073;28;20402;-82
2023/08/21 14:03:28;;;;;;;3.97;1.08;;;35.90;77.70;;;;;;5094828;28;20117;-77
2023/08/21 14:06:14;;;;;;;5.22;1.15;;;36.10;76.20;;;;;;5094024;28;20131;-77
2023/08/21 14:09:00;;;;;;;6.38;1.08;;;36.20;75.00;;;;;;5093089;28;20503;-77
2023/08/21 14:11:46;;;;;;;7.07;1.02;;;36.00;73.70;;;;;;5093494;28;20048;-78
2023/08/21 14:14:33;;;;;;;7.35;1.17;;;36.40;73.40;;;;;;5107244;28;20424;-81
2023/08/21 14:17:24;;;;;;;4.68;0.90;;;36.60;72.50;;;;;;5109098;28;20143;-83
2023/08/21 14:20:11;;;;;;;3.70;0.98;;;36.80;74.10;;;;;;5113607;28;20421;-84
2023/08/21 14:22:57;;;;;;;4.57;0.90;;;36.80;71.60;;;;;;5110204;28;20044;-87
2023/08/21 14:25:43;;;;;;;2.58;0.85;;;36.80;70.40;;;;;;5104851;28;20062;-88